ESSP/NRK METAR and TAF weather

Enter ICAO airport designator
Station Type Date Time Source
ESSP METAR 2021/03/01 09:20 UTC NOAA

ESSP 010920Z 26010KT CAVOK 06/00 Q1026 R27/09//95


Station Type Date Time Source
ESSP Decoded METAR 2021/03/01 09:20 UTC NOAA

Norrkoping, Sweden (ESSP) 58-35N 016-09E 0M
Mar 01, 2021 - 04:20 AM EST / 2021.03.01 0920 UTC
Wind: from the W (260 degrees) at 12 MPH (10 KT):0
Visibility: greater than 7 mile(s):0
Temperature: 42 F (6 C)
Dew Point: 32 F (0 C)
Relative Humidity: 65%
Pressure (altimeter): 30.30 in. Hg (1026 hPa)
ob: ESSP 010920Z 26010KT CAVOK 06/00 Q1026 R27/09//95
cycle: 9

Station Type Date Time Source
ESSP TAF 2018/01/01 02:31 UTC NOAA

TAF ESSP 010130Z 0102/0206 16002KT 9999 BKN004 PROB40 0102/0106 4000 BR SCT004

Example: see airport list